Time;durP1;ratioP1;P1;durP2;ratioP2;P2;SDS_P1;SDS_P2;PMS_P1;PMS_P2;Temp;Humidity;BMP_temperature;BMP_pressure;BME280_temperature;BME280_humidity;BME280_pressure;Samples;Min_cycle;Max_cycle;Signal;HPM_P1;HPM_P2
2021/10/15 00:00:33;;;;;;;31.00;17.45;;;;;;;8.82;100.00;101803.59;4959948;28;20426;-72
2021/10/15 00:03:18;;;;;;;27.13;16.58;;;;;;;8.59;100.00;101793.81;4959738;28;20109;-71
2021/10/15 00:06:04;;;;;;;27.27;16.80;;;;;;;8.53;100.00;101799.00;4959306;28;20023;-72
2021/10/15 00:08:50;;;;;;;26.67;17.27;;;;;;;8.69;100.00;101806.09;4960294;28;20074;-71
2021/10/15 00:11:36;;;;;;;25.88;16.55;;;;;;;8.63;100.00;101799.06;4959260;28;20101;-72
2021/10/15 00:14:21;;;;;;;29.73;18.17;;;;;;;8.52;100.00;101800.72;4945475;28;20368;-71
2021/10/15 00:17:07;;;;;;;29.75;17.17;;;;;;;8.57;100.00;101803.38;4958684;28;20035;-72
2021/10/15 00:19:53;;;;;;;25.55;17.48;;;;;;;8.69;100.00;101806.09;4958704;28;20027;-71
2021/10/15 00:22:39;;;;;;;29.80;17.45;;;;;;;8.48;100.00;101798.94;4960231;28;20038;-71
2021/10/15 00:25:25;;;;;;;26.27;17.10;;;;;;;8.59;100.00;101799.03;4956983;28;20077;-71
2021/10/15 00:28:11;;;;;;;29.58;17.73;;;;;;;8.60;100.00;101796.44;4959080;28;20150;-71
2021/10/15 00:30:58;;;;;;;29.25;17.42;;;;;;;8.58;100.00;101803.41;4959477;28;20034;-72
2021/10/15 00:33:44;;;;;;;29.88;17.60;;;;;;;8.54;100.00;101793.78;4958574;29;20031;-72
2021/10/15 00:36:29;;;;;;;29.40;18.02;;;;;;;8.61;100.00;101786.88;4944705;28;20424;-71
2021/10/15 00:39:15;;;;;;;28.05;17.48;;;;;;;8.53;100.00;101783.34;4959865;28;20024;-71
2021/10/15 00:42:01;;;;;;;28.05;17.35;;;;;;;8.80;100.00;101775.69;4958443;28;20444;-72
2021/10/15 00:44:47;;;;;;;26.50;16.55;;;;;;;8.66;100.00;101775.59;4959199;28;20448;-71
2021/10/15 00:47:33;;;;;;;27.45;17.55;;;;;;;8.54;100.00;101772.91;4958336;28;20023;-71
2021/10/15 00:50:19;;;;;;;25.77;17.00;;;;;;;8.69;100.00;101769.53;4959559;28;20110;-71
2021/10/15 00:53:04;;;;;;;27.85;17.70;;;;;;;8.79;100.00;101772.19;4959101;28;20482;-71
2021/10/15 00:55:50;;;;;;;27.85;17.40;;;;;;;8.83;100.00;101765.25;4958669;28;20035;-71
2021/10/15 00:58:36;;;;;;;25.48;16.70;;;;;;;8.63;100.00;101761.63;4958213;29;20050;-70
2021/10/15 01:01:22;;;;;;;26.80;16.48;;;;;;;8.68;100.00;101765.16;4956708;29;20468;-71
2021/10/15 01:04:08;;;;;;;30.92;18.23;;;;;;;8.58;100.00;101758.13;4958255;28;20125;-71
2021/10/15 01:06:54;;;;;;;26.48;17.38;;;;;;;8.70;100.00;101763.41;4958097;28;20027;-70
2021/10/15 01:09:41;;;;;;;25.83;15.98;;;;;;;8.66;100.00;101759.94;4958729;28;20093;-71
2021/10/15 01:12:27;;;;;;;27.70;17.70;;;;;;;8.85;100.00;101763.53;4945654;28;20042;-71
2021/10/15 01:15:13;;;;;;;27.55;17.17;;;;;;;8.69;100.00;101761.69;4958122;29;20114;-71
2021/10/15 01:17:59;;;;;;;28.40;16.85;;;;;;;8.56;100.00;101760.72;4957966;28;20035;-71
2021/10/15 01:20:48;;;;;;;27.33;17.10;;;;;;;8.50;100.00;101760.69;4958548;28;20042;-71
2021/10/15 01:23:34;;;;;;;24.75;16.45;;;;;;;8.68;100.00;101758.19;4957628;28;20023;-71
2021/10/15 01:26:20;;;;;;;29.08;17.70;;;;;;;8.54;100.00;101757.22;4956800;29;20031;-71
2021/10/15 01:29:06;;;;;;;26.30;16.75;;;;;;;8.50;100.00;101758.06;4957760;28;20027;-72
2021/10/15 01:31:52;;;;;;;25.40;16.60;;;;;;;8.48;100.00;101745.88;4958683;28;20472;-72
2021/10/15 01:34:38;;;;;;;29.38;18.02;;;;;;;8.52;100.00;101750.25;4957368;28;20041;-71
2021/10/15 01:37:23;;;;;;;27.65;16.92;;;;;;;8.72;100.00;101736.44;4956901;28;20110;-71
2021/10/15 01:40:11;;;;;;;30.80;17.50;;;;;;;8.53;100.00;101736.31;4958659;28;20065;-71
2021/10/15 01:42:56;;;;;;;26.83;17.45;;;;;;;8.64;100.00;101742.50;4959968;28;20023;-71
2021/10/15 01:45:42;;;;;;;29.90;18.25;;;;;;;8.51;100.00;101740.63;4944152;29;20047;-71
2021/10/15 01:48:28;;;;;;;29.48;17.70;;;;;;;8.68;100.00;101733.81;4957019;28;20466;-71
2021/10/15 01:51:14;;;;;;;31.65;18.40;;;;;;;8.72;100.00;101738.19;4943126;29;20035;-71
2021/10/15 01:53:59;;;;;;;28.17;17.65;;;;;;;8.51;100.00;101745.88;4942948;29;20027;-71
2021/10/15 01:56:45;;;;;;;31.90;18.63;;;;;;;8.75;100.00;101744.31;4958199;28;20046;-70
2021/10/15 01:59:31;;;;;;;31.83;19.15;;;;;;;8.49;100.00;101738.00;4942605;29;20027;-70
2021/10/15 02:02:17;;;;;;;30.48;18.63;;;;;;;8.50;100.00;101739.78;4958571;28;20139;-71
2021/10/15 02:05:04;;;;;;;31.40;19.10;;;;;;;8.53;100.00;101733.72;4958455;28;20024;-71
2021/10/15 02:07:50;;;;;;;30.83;19.02;;;;;;;8.48;100.00;101735.41;4957666;28;20038;-72
2021/10/15 02:10:36;;;;;;;30.73;18.92;;;;;;;8.63;100.00;101731.16;4957611;28;20122;-72
2021/10/15 02:13:22;;;;;;;31.08;18.67;;;;;;;8.36;100.00;101730.97;4957047;28;20027;-71
2021/10/15 02:16:08;;;;;;;34.53;19.73;;;;;;;8.42;100.00;101740.56;4958099;28;20042;-71
2021/10/15 02:18:53;;;;;;;35.47;20.77;;;;;;;8.41;100.00;101731.00;4957075;28;20027;-71
2021/10/15 02:21:39;;;;;;;35.05;20.48;;;;;;;8.46;100.00;101731.91;4957480;28;20031;-71
2021/10/15 02:24:25;;;;;;;33.83;20.77;;;;;;;8.56;100.00;101734.59;4957049;28;20027;-71
2021/10/15 02:27:11;;;;;;;36.80;21.08;;;;;;;8.55;100.00;101731.97;4957554;28;20045;-72
2021/10/15 02:29:57;;;;;;;35.28;19.75;;;;;;;8.62;100.00;101736.38;4943315;28;20199;-72
2021/10/15 02:32:43;;;;;;;36.35;21.27;;;;;;;8.63;100.00;101735.50;4944186;28;20027;-71
2021/10/15 02:35:29;;;;;;;37.08;21.58;;;;;;;8.64;100.00;101740.75;4958200;28;20431;-71
2021/10/15 02:38:15;;;;;;;39.90;22.02;;;;;;;8.69;100.00;101735.56;4958054;28;20039;-72
2021/10/15 02:41:01;;;;;;;43.58;22.52;;;;;;;8.73;100.00;101737.31;4944342;28;20038;-70
2021/10/15 02:43:46;;;;;;;41.85;23.65;;;;;;;8.76;100.00;101732.97;4957598;28;20525;-71
2021/10/15 02:46:33;;;;;;;42.60;23.23;;;;;;;8.59;100.00;101738.94;4956998;28;20345;-71
2021/10/15 02:49:18;;;;;;;45.58;26.17;;;;;;;8.79;100.00;101740.84;4958345;28;20058;-71
2021/10/15 02:52:04;;;;;;;48.08;26.77;;;;;;;8.58;100.00;101734.59;4961061;28;20122;-71
2021/10/15 02:54:50;;;;;;;49.58;27.23;;;;;;;8.52;100.00;101732.81;4947127;28;20019;-73
2021/10/15 02:57:36;;;;;;;49.58;26.83;;;;;;;8.53;100.00;101729.34;4961229;28;20031;-71
2021/10/15 03:00:21;;;;;;;44.03;24.38;;;;;;;8.60;100.00;101738.97;4960503;28;20028;-72
2021/10/15 03:03:07;;;;;;;42.92;24.02;;;;;;;8.61;100.00;101745.94;4961708;28;20039;-71
2021/10/15 03:05:53;;;;;;;47.00;26.63;;;;;;;8.89;100.00;101733.94;4961080;28;20181;-72
2021/10/15 03:08:39;;;;;;;48.63;25.30;;;;;;;8.63;100.00;101732.88;4959618;28;20070;-71
2021/10/15 03:11:25;;;;;;;41.33;23.50;;;;;;;8.77;100.00;101739.94;4960786;28;20043;-71
2021/10/15 03:14:11;;;;;;;42.05;23.85;;;;;;;8.69;100.00;101746.00;4960316;28;20039;-72
2021/10/15 03:16:56;;;;;;;42.13;24.00;;;;;;;8.90;100.00;101733.06;4960584;28;20031;-71
2021/10/15 03:19:42;;;;;;;46.75;25.85;;;;;;;8.87;100.00;101733.03;4960794;28;20475;-71
2021/10/15 03:22:28;;;;;;;42.13;23.77;;;;;;;8.77;100.00;101721.66;4946080;29;20059;-71
2021/10/15 03:25:14;;;;;;;44.17;24.50;;;;;;;8.76;100.00;101740.81;4946306;28;20027;-72
2021/10/15 03:28:00;;;;;;;43.70;25.23;;;;;;;9.06;100.00;101733.16;4945765;29;20038;-72
2021/10/15 03:30:46;;;;;;;42.78;24.70;;;;;;;8.82;100.00;101730.41;4960388;28;20031;-72
2021/10/15 03:33:31;;;;;;;46.88;26.38;;;;;;;8.91;100.00;101732.19;4960004;28;20131;-72
2021/10/15 03:36:17;;;;;;;39.67;22.98;;;;;;;8.69;100.00;101727.72;4959876;28;20031;-71
2021/10/15 03:39:03;;;;;;;41.58;23.75;;;;;;;8.73;100.00;101722.50;4960075;28;20110;-71
2021/10/15 03:41:49;;;;;;;40.97;24.45;;;;;;;8.81;100.00;101715.59;4945345;29;20485;-71
2021/10/15 03:44:35;;;;;;;43.70;24.00;;;;;;;8.71;100.00;101711.19;4945423;29;20034;-71
2021/10/15 03:47:20;;;;;;;44.75;24.65;;;;;;;8.71;100.00;101718.13;4958026;29;20088;-71
2021/10/15 03:50:08;;;;;;;45.42;24.75;;;;;;;8.71;100.00;101718.13;4960438;28;20026;-71
2021/10/15 03:52:54;;;;;;;45.50;25.40;;;;;;;8.91;100.00;101720.00;4959901;28;20123;-72
2021/10/15 03:55:39;;;;;;;45.72;25.25;;;;;;;8.69;100.00;101715.50;4959731;28;20046;-72
2021/10/15 03:58:25;;;;;;;45.75;26.40;;;;;;;8.72;100.00;101710.31;4959744;28;20036;-71
2021/10/15 04:01:11;;;;;;;51.17;26.45;;;;;;;8.79;100.00;101711.22;4958574;28;20031;-72
2021/10/15 04:03:57;;;;;;;50.63;25.52;;;;;;;8.85;100.00;101706.03;4959990;28;20019;-72
2021/10/15 04:06:42;;;;;;;53.60;28.10;;;;;;;8.88;100.00;101701.69;4958628;28;20098;-72
2021/10/15 04:09:28;;;;;;;48.50;26.13;;;;;;;8.74;100.00;101697.25;4959878;28;20078;-71
2021/10/15 04:12:14;;;;;;;49.72;26.77;;;;;;;8.84;100.00;101699.94;4959779;28;20360;-71
2021/10/15 04:15:00;;;;;;;46.65;24.98;;;;;;;9.14;100.00;101694.84;4959969;28;20023;-71
2021/10/15 04:17:46;;;;;;;53.88;28.05;;;;;;;8.94;100.00;101699.13;4945302;28;20380;-71
2021/10/15 04:20:32;;;;;;;60.70;29.70;;;;;;;8.96;100.00;101693.91;4944377;29;20105;-72
2021/10/15 04:23:18;;;;;;;58.83;30.30;;;;;;;8.99;100.00;101701.75;4959372;28;20023;-71
2021/10/15 04:26:04;;;;;;;54.20;29.80;;;;;;;9.08;100.00;101705.28;4945427;28;20026;-72
2021/10/15 04:28:49;;;;;;;63.38;31.15;;;;;;;8.89;100.00;101697.34;4959569;28;20360;-72
2021/10/15 04:31:35;;;;;;;58.00;29.85;;;;;;;8.83;100.00;101698.19;4958930;28;20050;-72
2021/10/15 04:34:21;;;;;;;54.08;29.30;;;;;;;9.01;100.00;101700.88;4959788;28;20051;-72
2021/10/15 04:37:07;;;;;;;59.58;30.20;;;;;;;8.97;100.00;101695.66;4962447;28;20039;-73
2021/10/15 04:39:52;;;;;;;50.75;27.90;;;;;;;8.94;100.00;101699.13;4960979;28;20352;-73
2021/10/15 04:42:39;;;;;;;58.75;29.55;;;;;;;8.98;100.00;101710.44;4961867;28;20031;-73
2021/10/15 04:45:25;;;;;;;54.95;29.25;;;;;;;8.99;100.00;101712.19;4959831;28;20043;-72
2021/10/15 04:48:11;;;;;;;49.38;27.90;;;;;;;9.07;100.00;101705.25;4959134;28;20448;-74
2021/10/15 04:50:57;;;;;;;55.20;28.80;;;;;;;9.27;100.00;101699.25;4958665;28;20030;-73
2021/10/15 04:53:42;;;;;;;52.10;28.48;;;;;;;9.15;100.00;101707.06;4958729;28;20034;-73
2021/10/15 04:56:29;;;;;;;53.55;30.00;;;;;;;9.19;100.00;101713.16;4944965;28;20035;-73
2021/10/15 04:59:15;;;;;;;53.85;29.55;;;;;;;9.24;100.00;101706.19;4960394;28;20053;-73
2021/10/15 05:02:01;;;;;;;57.42;30.52;;;;;;;9.20;100.00;101700.09;4963604;28;20035;-72
2021/10/15 05:04:46;;;;;;;53.13;28.65;;;;;;;9.07;100.00;101707.88;4960207;28;20090;-73
2021/10/15 05:07:32;;;;;;;55.17;28.95;;;;;;;9.10;100.00;101707.91;4944452;28;20090;-72
2021/10/15 05:10:21;;;;;;;51.20;28.30;;;;;;;9.23;100.00;101704.44;4958026;28;20465;-72
2021/10/15 05:13:09;;;;;;;51.20;27.65;;;;;;;9.15;100.00;101709.66;4958690;28;20031;-75
2021/10/15 05:15:55;;;;;;;49.47;26.80;;;;;;;9.14;100.00;101710.53;4958199;28;20372;-72
2021/10/15 05:18:41;;;;;;;53.30;31.25;;;;;;;9.27;100.00;101704.47;4943565;29;20118;-74
2021/10/15 05:21:26;;;;;;;50.75;27.98;;;;;;;9.26;100.00;101701.84;4944190;29;20452;-75
2021/10/15 05:24:12;;;;;;;56.78;30.27;;;;;;;9.16;100.00;101693.09;4943699;29;20027;-73
2021/10/15 05:26:58;;;;;;;47.22;26.95;;;;;;;9.09;100.00;101700.94;4958772;28;20456;-74
2021/10/15 05:29:47;;;;;;;47.65;27.85;;;;;;;9.06;100.00;101717.47;4957880;28;20034;-72
2021/10/15 05:32:34;;;;;;;51.92;28.95;;;;;;;9.20;100.00;101710.56;4957656;29;20039;-73
2021/10/15 05:35:20;;;;;;;53.83;30.90;;;;;;;9.16;100.00;101715.75;4958616;28;20027;-73
2021/10/15 05:38:05;;;;;;;52.97;29.73;;;;;;;9.49;100.00;101721.97;4943422;29;20098;-73
2021/10/15 05:40:51;;;;;;;65.75;34.08;;;;;;;9.33;100.00;101717.56;4969071;28;20027;-72
2021/10/15 05:43:37;;;;;;;57.88;30.75;;;;;;;9.36;100.00;101724.53;4951646;29;20045;-73
2021/10/15 05:46:23;;;;;;;62.20;33.00;;;;;;;9.22;100.00;101729.75;4951882;29;20024;-74
2021/10/15 05:49:08;;;;;;;52.45;30.35;;;;;;;9.20;100.00;101731.47;4964677;28;20105;-73
2021/10/15 05:52:02;;;;;;;58.17;31.45;;;;;;;9.31;100.00;101727.16;4964344;28;20150;-74
2021/10/15 05:54:55;;;;;;;68.65;32.65;;;;;;;9.28;100.00;101728.88;4947300;29;20030;-73
2021/10/15 06:00:42;;;;;;;60.97;31.25;;;;;;;9.09;100.00;101719.22;4960557;28;20393;-73
2021/10/15 06:03:28;;;;;;;50.47;28.30;;;;;;;9.11;100.00;101713.13;4957864;28;20091;-72
2021/10/15 06:15:13;;;;;;;51.72;28.88;;;;;;;9.11;100.00;101718.38;4956900;28;20069;-73
2021/10/15 06:18:09;;;;;;;53.15;29.45;;;;;;;9.11;100.00;101720.09;4943203;29;20437;-73
2021/10/15 06:20:55;;;;;;;53.88;30.20;;;;;;;9.21;100.00;101729.75;4947840;29;20027;-73
2021/10/15 06:23:41;;;;;;;62.90;32.70;;;;;;;9.29;100.00;101720.19;4950244;28;20045;-72
2021/10/15 06:26:27;;;;;;;53.72;30.25;;;;;;;9.08;100.00;101713.13;4963902;28;20384;-73
2021/10/15 06:29:12;;;;;;;51.50;29.33;;;;;;;9.15;100.00;101714.91;4962443;28;20363;-73
2021/10/15 06:31:58;;;;;;;49.25;29.80;;;;;;;9.33;100.00;101716.72;4958150;28;20042;-71
2021/10/15 06:34:45;;;;;;;52.20;30.20;;;;;;;9.32;100.00;101725.41;4957571;28;20031;-72
2021/10/15 06:37:31;;;;;;;53.83;30.83;;;;;;;9.61;100.00;101723.78;4942833;28;20136;-72
2021/10/15 06:40:17;;;;;;;51.35;30.48;;;;;;;9.25;100.00;101727.13;4942929;29;20067;-72
2021/10/15 06:43:05;;;;;;;57.88;32.70;;;;;;;9.33;100.00;101724.56;4942828;28;20118;-73
2021/10/15 06:45:52;;;;;;;60.13;33.30;;;;;;;9.25;100.00;101726.28;4943413;28;20441;-72
2021/10/15 06:48:37;;;;;;;62.55;33.22;;;;;;;9.21;100.00;101720.13;4957591;28;20067;-72
2021/10/15 06:51:23;;;;;;;64.20;34.85;;;;;;;9.16;100.00;101719.25;4955979;29;20023;-72
2021/10/15 06:54:09;;;;;;;61.78;34.42;;;;;;;9.19;100.00;101714.03;4957407;28;20046;-73
2021/10/15 06:56:55;;;;;;;58.28;33.00;;;;;;;9.16;100.00;101697.44;4957309;28;20027;-71
2021/10/15 06:59:40;;;;;;;55.78;32.20;;;;;;;9.16;100.00;101700.06;4957282;28;20027;-71
2021/10/15 07:02:26;;;;;;;60.58;33.63;;;;;;;9.29;100.00;101696.66;4957336;28;20424;-71
2021/10/15 07:05:12;;;;;;;64.93;35.95;;;;;;;9.34;100.00;101695.78;4942896;29;20475;-71
2021/10/15 07:07:58;;;;;;;58.10;31.05;;;;;;;9.42;100.00;101698.41;4957399;28;20106;-71
2021/10/15 07:10:44;;;;;;;58.60;34.33;;;;;;;9.28;100.00;101690.53;4956365;28;20066;-72
2021/10/15 07:13:31;;;;;;;56.95;32.45;;;;;;;9.25;100.00;101703.59;4955892;28;20321;-71
2021/10/15 07:16:20;;;;;;;60.55;32.97;;;;;;;9.30;100.00;101699.28;4956046;28;20401;-72
2021/10/15 07:19:06;;;;;;;62.58;34.60;;;;;;;9.21;100.00;101698.38;4955711;28;20093;-71
2021/10/15 07:21:52;;;;;;;61.10;33.15;;;;;;;9.16;100.00;101706.19;4944122;28;20050;-71
2021/10/15 07:24:37;;;;;;;59.63;33.40;;;;;;;9.31;100.00;101701.00;4942334;29;20031;-71
2021/10/15 07:27:23;;;;;;;57.33;32.83;;;;;;;9.33;100.00;101701.88;4956952;28;20027;-71
2021/10/15 07:30:10;;;;;;;61.20;34.85;;;;;;;9.60;100.00;101703.69;4956475;28;20027;-72
2021/10/15 07:32:55;;;;;;;61.85;32.92;;;;;;;9.32;100.00;101718.44;4942908;28;20065;-72
2021/10/15 07:35:41;;;;;;;57.38;32.28;;;;;;;9.26;100.00;101704.47;4958089;28;20023;-71
2021/10/15 07:38:27;;;;;;;62.97;33.22;;;;;;;9.40;100.00;101715.84;4960243;28;20035;-72
2021/10/15 07:41:13;;;;;;;58.38;32.92;;;;;;;9.39;100.00;101720.22;4959153;28;20035;-71
2021/10/15 07:43:59;;;;;;;57.70;31.88;;;;;;;9.47;100.00;101715.00;4962779;28;20090;-71
2021/10/15 07:46:45;;;;;;;54.88;30.83;;;;;;;9.37;100.00;101713.25;4959254;29;20031;-71
2021/10/15 07:49:30;;;;;;;60.33;33.10;;;;;;;9.56;100.00;101717.63;4959991;28;20035;-71
2021/10/15 07:52:16;;;;;;;53.47;31.75;;;;;;;9.56;100.00;101721.13;4959340;28;20038;-73
2021/10/15 07:55:02;;;;;;;54.50;32.72;;;;;;;9.49;100.00;101721.97;4945316;28;20027;-72
2021/10/15 07:57:49;;;;;;;57.67;32.78;;;;;;;9.48;100.00;101717.63;4959630;28;20027;-73
2021/10/15 08:00:38;;;;;;;51.85;31.27;;;;;;;9.47;100.00;101712.38;4944885;29;20050;-71
2021/10/15 08:03:23;;;;;;;55.45;32.13;;;;;;;9.47;100.00;101713.25;4959782;28;20456;-72
2021/10/15 08:06:09;;;;;;;55.92;33.63;;;;;;;9.49;100.00;101700.19;4958700;29;20035;-71
2021/10/15 08:08:56;;;;;;;53.00;31.40;;;;;;;9.35;100.00;101700.16;4960106;28;20051;-71
2021/10/15 08:11:41;;;;;;;58.22;32.75;;;;;;;9.38;100.00;101705.41;4958819;29;20073;-71
2021/10/15 08:14:27;;;;;;;57.60;34.22;;;;;;;9.42;100.00;101711.50;4944977;28;20073;-72
2021/10/15 08:17:13;;;;;;;61.50;34.28;;;;;;;9.45;100.00;101701.06;4958961;28;20083;-72
2021/10/15 08:19:59;;;;;;;63.33;35.42;;;;;;;9.43;100.00;101711.50;4944894;29;20336;-71
2021/10/15 08:22:45;;;;;;;69.30;40.83;;;;;;;9.48;100.00;101701.94;4960017;28;20345;-71
2021/10/15 08:25:31;;;;;;;60.15;35.10;;;;;;;9.52;100.00;101703.69;4944223;29;20031;-72
2021/10/15 08:28:17;;;;;;;65.70;37.03;;;;;;;9.58;100.00;101703.72;4958530;28;20463;-72
2021/10/15 08:31:02;;;;;;;64.95;35.15;;;;;;;9.50;100.00;101699.31;4958134;28;20066;-72
2021/10/15 08:33:48;;;;;;;61.53;34.65;;;;;;;9.43;100.00;101698.44;4958187;29;20058;-73
2021/10/15 08:36:34;;;;;;;75.38;38.65;;;;;;;9.57;100.00;101691.47;4958149;28;20049;-71
2021/10/15 08:39:22;;;;;;;66.47;37.03;;;;;;;9.55;100.00;101681.88;4944559;29;20046;-72
2021/10/15 08:42:09;;;;;;;68.35;37.08;;;;;;;9.59;100.00;101684.53;4959340;28;20023;-72
2021/10/15 08:44:54;;;;;;;72.57;39.22;;;;;;;9.52;100.00;101689.72;4959482;28;20031;-72
2021/10/15 08:47:40;;;;;;;71.05;36.80;;;;;;;9.46;100.00;101681.88;4959160;28;20086;-71
2021/10/15 08:50:26;;;;;;;72.78;39.28;;;;;;;9.51;100.00;101672.28;4958702;28;20019;-72
2021/10/15 08:53:12;;;;;;;70.88;38.17;;;;;;;9.68;100.00;101683.63;4959018;28;20023;-71
2021/10/15 08:55:58;;;;;;;72.00;39.92;;;;;;;9.52;100.00;101666.16;4944382;28;20480;-71
2021/10/15 08:58:47;;;;;;;72.50;38.67;;;;;;;9.44;100.00;101665.28;4944464;29;20415;-71
2021/10/15 09:01:48;;;;;;;76.05;39.83;;;;;;;9.57;100.00;101678.41;4957588;28;20170;-71
2021/10/15 09:04:52;;;;;;;75.15;39.00;;;;;;;9.56;100.00;101676.66;4957789;29;20039;-72
2021/10/15 09:07:38;;;;;;;74.57;40.08;;;;;;;9.57;100.00;101683.63;4943527;29;20091;-71
2021/10/15 09:10:29;;;;;;;75.32;40.35;;;;;;;9.61;100.00;101687.16;4958853;28;20057;-71
2021/10/15 09:13:19;;;;;;;74.50;41.95;;;;;;;9.72;100.00;101683.66;4958721;28;20140;-71
2021/10/15 09:16:06;;;;;;;68.13;38.42;;;;;;;9.65;100.00;101683.66;4944241;29;20061;-71
2021/10/15 09:18:52;;;;;;;72.72;39.20;;;;;;;9.73;100.00;101676.69;4956824;29;20105;-72
2021/10/15 09:21:38;;;;;;;71.03;38.20;;;;;;;9.65;100.00;101676.66;4958083;29;20027;-71
2021/10/15 09:24:36;;;;;;;74.35;38.78;;;;;;;9.71;100.00;101673.19;4958721;28;20042;-72
2021/10/15 09:27:40;;;;;;;69.32;38.72;;;;;;;9.74;100.00;101671.44;4958630;28;20023;-72
2021/10/15 09:30:30;;;;;;;69.75;38.75;;;;;;;9.67;100.00;101661.84;4957195;29;20039;-72
2021/10/15 09:33:18;;;;;;;64.20;36.95;;;;;;;9.70;100.00;101664.44;4956860;29;20035;-71
2021/10/15 09:36:06;;;;;;;65.72;37.80;;;;;;;9.68;100.00;101663.59;4943654;28;20039;-71
2021/10/15 09:38:53;;;;;;;67.90;37.83;;;;;;;10.02;100.00;101659.25;4958318;28;20372;-73
2021/10/15 09:41:40;;;;;;;67.72;39.78;;;;;;;9.87;100.00;101670.59;4958572;28;20027;-72
2021/10/15 09:44:31;;;;;;;71.72;40.83;;;;;;;9.70;100.00;101643.50;4958888;28;20027;-72
2021/10/15 09:47:24;;;;;;;73.47;41.15;;;;;;;9.82;100.00;101643.53;4957008;28;20032;-72
2021/10/15 09:50:11;;;;;;;66.35;39.83;;;;;;;9.88;100.00;101645.28;4957130;28;20023;-72
2021/10/15 09:53:02;;;;;;;64.90;38.45;;;;;;;10.08;100.00;101646.19;4958470;28;20035;-71
2021/10/15 09:55:48;;;;;;;72.03;39.90;;;;;;;10.28;100.00;101644.41;4957911;28;20070;-72
2021/10/15 09:58:34;;;;;;;66.05;38.25;;;;;;;10.14;100.00;101639.19;4956684;28;20031;-72
2021/10/15 10:01:20;;;;;;;71.63;39.97;;;;;;;10.29;100.00;101637.44;4955695;29;20418;-72
2021/10/15 10:04:06;;;;;;;67.75;38.97;;;;;;;10.11;100.00;101627.84;4956285;29;20062;-73
2021/10/15 10:06:56;;;;;;;65.38;38.85;;;;;;;10.08;100.00;101625.22;4958587;28;20058;-76
2021/10/15 10:09:43;;;;;;;61.38;37.28;;;;;;;10.10;100.00;101628.75;4957862;28;20051;-72
2021/10/15 10:12:30;;;;;;;66.72;40.83;;;;;;;10.28;100.00;101618.22;4955851;29;20368;-72
2021/10/15 10:15:18;;;;;;;72.45;42.60;;;;;;;10.32;100.00;101619.09;4956431;28;20119;-72
2021/10/15 10:21:29;;;;;;;67.53;40.63;;;;;;;10.35;100.00;101621.69;4957779;28;20051;-71
2021/10/15 10:24:21;;;;;;;68.15;38.95;;;;;;;10.25;100.00;101619.97;4960995;29;20031;-73
2021/10/15 10:27:07;;;;;;;68.18;39.70;;;;;;;10.37;100.00;101622.56;4959498;28;20057;-73
2021/10/15 10:29:54;;;;;;;73.32;41.25;;;;;;;10.43;100.00;101614.69;4958587;28;20054;-74
2021/10/15 10:32:40;;;;;;;65.63;38.13;;;;;;;10.41;100.00;101608.59;4959317;28;20031;-73
2021/10/15 10:35:28;;;;;;;71.93;40.97;;;;;;;10.37;100.00;101599.84;4957213;28;20034;-74
2021/10/15 10:38:20;;;;;;;70.35;40.97;;;;;;;10.34;100.00;101599.00;4943817;28;20035;-73
2021/10/15 10:41:06;;;;;;;71.65;41.47;;;;;;;10.35;100.00;101599.00;4957600;28;20031;-73
2021/10/15 10:43:52;;;;;;;86.28;46.58;;;;;;;10.42;100.00;101598.13;4958553;28;20028;-73
2021/10/15 10:46:38;;;;;;;84.75;45.53;;;;;;;10.60;100.00;101595.41;4959307;28;20396;-74
2021/10/15 10:49:24;;;;;;;82.85;47.13;;;;;;;10.64;100.00;101594.53;4957932;28;20031;-74
2021/10/15 10:52:15;;;;;;;82.85;47.42;;;;;;;10.56;100.00;101591.06;4943316;29;20082;-72
2021/10/15 10:55:02;;;;;;;91.70;48.67;;;;;;;10.76;100.00;101591.88;4942700;29;20038;-71
2021/10/15 10:57:48;;;;;;;87.93;49.35;;;;;;;11.06;100.00;101589.09;4957149;28;20031;-72
2021/10/15 11:00:34;;;;;;;88.65;48.75;;;;;;;10.67;100.00;101570.06;4942114;29;20031;-71
2021/10/15 11:03:33;;;;;;;93.97;51.95;;;;;;;10.66;100.00;101582.31;4957079;28;20043;-72
2021/10/15 11:06:19;;;;;;;97.65;51.08;;;;;;;10.69;100.00;101577.03;4957746;28;20105;-72
2021/10/15 11:09:47;;;;;;;98.38;52.28;;;;;;;10.53;100.00;101570.09;4942520;28;20125;-71
2021/10/15 11:12:33;;;;;;;90.25;49.80;;;;;;;10.42;100.00;101561.44;4960288;28;20043;-72
2021/10/15 11:15:19;;;;;;;87.88;48.38;;;;;;;10.71;100.00;101554.31;4962183;28;20089;-70
2021/10/15 11:18:04;;;;;;;79.20;43.60;;;;;;;10.69;100.00;101545.59;4960781;28;20456;-71
2021/10/15 11:20:50;;;;;;;74.63;42.95;;;;;;;10.53;100.00;101548.28;4960893;28;20062;-71
2021/10/15 11:23:39;;;;;;;71.15;41.65;;;;;;;10.41;100.00;101562.28;4960230;28;20035;-70
2021/10/15 11:26:33;;;;;;;75.10;43.63;;;;;;;10.60;100.00;101556.13;4946142;29;20027;-71
2021/10/15 11:29:19;;;;;;;80.82;44.25;;;;;;;10.53;100.00;101548.28;4960594;28;20042;-71
2021/10/15 11:32:04;;;;;;;80.22;44.60;;;;;;;10.30;100.00;101537.91;4960334;28;20456;-70
2021/10/15 11:35:24;;;;;;;81.88;46.20;;;;;;;10.54;100.00;101542.16;4959820;28;20039;-71
2021/10/15 11:38:25;;;;;;;79.95;44.90;;;;;;;10.44;100.00;101530.84;4936379;29;20415;-70
2021/10/15 11:41:11;;;;;;;85.28;47.45;;;;;;;10.63;100.00;101527.28;4945839;28;20034;-70
2021/10/15 11:43:57;;;;;;;83.35;46.30;;;;;;;10.44;100.00;101528.22;4959135;29;20026;-71
2021/10/15 11:46:42;;;;;;;77.72;46.08;;;;;;;10.60;100.00;101531.69;4960125;28;20039;-70
2021/10/15 11:49:38;;;;;;;86.03;45.97;;;;;;;10.56;100.00;101522.09;4960173;28;20034;-70
2021/10/15 11:52:24;;;;;;;91.47;49.67;;;;;;;10.53;100.00;101522.94;4945172;29;20031;-71
2021/10/15 11:55:11;;;;;;;92.05;48.20;;;;;;;10.55;100.00;101515.97;4959927;28;20149;-71
2021/10/15 11:58:30;;;;;;;94.15;49.47;;;;;;;10.56;100.00;101504.59;4959234;28;20031;-69
2021/10/15 12:01:22;;;;;;;82.93;46.33;;;;;;;10.47;100.00;101504.66;4945287;28;20027;-70
2021/10/15 12:04:09;;;;;;;82.10;45.70;;;;;;;10.62;100.00;101503.69;4958766;28;20027;-72
2021/10/15 12:06:55;;;;;;;82.53;46.80;;;;;;;10.75;100.00;101506.25;4959292;28;20171;-69
2021/10/15 12:09:41;;;;;;;84.82;47.08;;;;;;;10.71;100.00;101486.19;4959026;28;20062;-70
2021/10/15 12:12:26;;;;;;;85.72;45.88;;;;;;;10.71;100.00;101480.94;4958576;28;20086;-69
2021/10/15 12:15:12;;;;;;;87.85;46.03;;;;;;;10.70;100.00;101475.69;4960056;28;20050;-70
2021/10/15 12:18:08;;;;;;;81.75;45.10;;;;;;;10.67;100.00;101465.22;4958398;28;20027;-71
2021/10/15 12:21:09;;;;;;;84.35;44.72;;;;;;;10.65;100.00;101462.63;4944614;28;20035;-71
2021/10/15 12:23:55;;;;;;;79.20;43.30;;;;;;;10.77;100.00;101472.19;4946073;28;20027;-71
2021/10/15 12:26:40;;;;;;;87.10;45.83;;;;;;;10.75;100.00;101466.06;4958114;29;20065;-71
2021/10/15 12:29:28;;;;;;;89.03;46.70;;;;;;;10.81;100.00;101473.91;4958399;28;20118;-70
2021/10/15 12:32:17;;;;;;;77.88;44.53;;;;;;;10.72;100.00;101463.47;4959881;28;20062;-71
2021/10/15 12:35:14;;;;;;;86.68;46.92;;;;;;;10.86;100.00;101465.13;4959286;28;20078;-70
2021/10/15 12:38:01;;;;;;;86.82;47.40;;;;;;;10.80;100.00;101465.16;4957647;29;20031;-70
2021/10/15 12:40:46;;;;;;;82.10;46.88;;;;;;;10.79;100.00;101462.53;4944606;29;20039;-70
2021/10/15 12:43:32;;;;;;;96.25;50.65;;;;;;;10.82;100.00;101462.53;4959105;28;20031;-70
2021/10/15 12:46:18;;;;;;;90.32;48.50;;;;;;;10.71;100.00;101464.34;4944757;28;20038;-70
2021/10/15 12:49:04;;;;;;;92.15;48.72;;;;;;;10.79;100.00;101450.31;4958906;28;20031;-70
2021/10/15 12:51:50;;;;;;;96.05;50.90;;;;;;;10.85;100.00;101437.16;4944800;28;20070;-70